sensor_id;sensor_type;location;lat;lon;timestamp;pressure;altitude;pressure_sealevel;temperature;humidity
45078;BME280;60508;42.622;25.416;2024-03-02T00:00:10;96399.44;;;8.43;92.10
45078;BME280;60508;42.622;25.416;2024-03-02T00:03:00;96392.66;;;8.40;93.04
45078;BME280;60508;42.622;25.416;2024-03-02T00:05:26;96392.56;;;8.35;93.31
45078;BME280;60508;42.622;25.416;2024-03-02T00:07:54;96393.47;;;8.41;93.47
45078;BME280;60508;42.622;25.416;2024-03-02T00:10:41;96400.94;;;8.39;93.18
45078;BME280;60508;42.622;25.416;2024-03-02T00:13:08;96410.72;;;8.45;93.77
45078;BME280;60508;42.622;25.416;2024-03-02T00:15:45;96404.41;;;8.39;94.11
45078;BME280;60508;42.622;25.416;2024-03-02T00:18:34;96403.78;;;8.61;93.42
45078;BME280;60508;42.622;25.416;2024-03-02T00:21:01;96403.56;;;8.63;93.02
45078;BME280;60508;42.622;25.416;2024-03-02T00:23:33;96411.97;;;8.54;92.70
45078;BME280;60508;42.622;25.416;2024-03-02T00:26:01;96403.72;;;8.44;93.55
45078;BME280;60508;42.622;25.416;2024-03-02T00:28:48;96408.28;;;8.44;93.57
45078;BME280;60508;42.622;25.416;2024-03-02T00:31:20;96394.19;;;8.36;94.90
45078;BME280;60508;42.622;25.416;2024-03-02T00:33:47;96397.47;;;8.27;95.14
45078;BME280;60508;42.622;25.416;2024-03-02T00:36:16;96394.94;;;8.20;95.71
45078;BME280;60508;42.622;25.416;2024-03-02T00:39:03;96406.06;;;8.40;94.79
45078;BME280;60508;42.622;25.416;2024-03-02T00:41:32;96403.34;;;8.23;94.67
45078;BME280;60508;42.622;25.416;2024-03-02T00:44:07;96402.94;;;8.44;94.26
45078;BME280;60508;42.622;25.416;2024-03-02T00:46:40;96399.69;;;8.30;94.65
45078;BME280;60508;42.622;25.416;2024-03-02T00:49:23;96394.94;;;8.20;95.08
45078;BME280;60508;42.622;25.416;2024-03-02T00:52:10;96400.00;;;7.93;96.03
45078;BME280;60508;42.622;25.416;2024-03-02T00:54:36;96384.75;;;8.05;96.25
45078;BME280;60508;42.622;25.416;2024-03-02T00:57:03;96390.19;;;8.10;96.44
45078;BME280;60508;42.622;25.416;2024-03-02T00:59:50;96384.84;;;8.10;95.54
45078;BME280;60508;42.622;25.416;2024-03-02T01:02:17;96382.25;;;8.27;95.06
45078;BME280;60508;42.622;25.416;2024-03-02T01:04:43;96387.59;;;8.27;94.42
45078;BME280;60508;42.622;25.416;2024-03-02T01:07:09;96379.75;;;8.37;94.29
45078;BME280;60508;42.622;25.416;2024-03-02T01:09:36;96379.19;;;8.35;93.75
45078;BME280;60508;42.622;25.416;2024-03-02T01:12:02;96375.22;;;8.38;93.50
45078;BME280;60508;42.622;25.416;2024-03-02T01:14:29;96379.34;;;8.29;94.08
45078;BME280;60508;42.622;25.416;2024-03-02T01:17:15;96387.69;;;8.32;94.55
45078;BME280;60508;42.622;25.416;2024-03-02T01:19:42;96385.28;;;7.66;98.04
45078;BME280;60508;42.622;25.416;2024-03-02T01:22:08;96379.22;;;7.83;99.17
45078;BME280;60508;42.622;25.416;2024-03-02T01:24:54;96380.91;;;8.13;98.04
45078;BME280;60508;42.622;25.416;2024-03-02T01:27:21;96372.25;;;8.22;96.51
45078;BME280;60508;42.622;25.416;2024-03-02T01:29:47;96366.94;;;8.11;96.47
45078;BME280;60508;42.622;25.416;2024-03-02T01:32:14;96368.47;;;8.07;96.92
45078;BME280;60508;42.622;25.416;2024-03-02T01:34:40;96367.06;;;8.04;97.21
45078;BME280;60508;42.622;25.416;2024-03-02T01:37:06;96363.34;;;8.05;97.17
45078;BME280;60508;42.622;25.416;2024-03-02T01:39:33;96371.00;;;8.13;96.55
45078;BME280;60508;42.622;25.416;2024-03-02T01:41:59;96357.06;;;8.11;96.60
45078;BME280;60508;42.622;25.416;2024-03-02T01:44:25;96360.25;;;8.25;95.98
45078;BME280;60508;42.622;25.416;2024-03-02T01:47:12;96360.50;;;8.23;95.20
45078;BME280;60508;42.622;25.416;2024-03-02T01:49:38;96367.00;;;8.28;95.40
45078;BME280;60508;42.622;25.416;2024-03-02T01:52:07;96358.25;;;8.32;95.61
45078;BME280;60508;42.622;25.416;2024-03-02T01:54:53;96358.63;;;8.24;95.36
45078;BME280;60508;42.622;25.416;2024-03-02T01:57:20;96350.88;;;7.70;97.99
45078;BME280;60508;42.622;25.416;2024-03-02T01:59:46;96356.44;;;7.68;100.00
45078;BME280;60508;42.622;25.416;2024-03-02T02:02:17;96343.81;;;8.04;99.35
45078;BME280;60508;42.622;25.416;2024-03-02T02:04:43;96345.66;;;8.04;97.69
45078;BME280;60508;42.622;25.416;2024-03-02T02:07:10;96352.41;;;8.07;97.44
45078;BME280;60508;42.622;25.416;2024-03-02T02:09:36;96348.06;;;8.17;97.54
45078;BME280;60508;42.622;25.416;2024-03-02T02:12:03;96360.19;;;8.08;96.99
45078;BME280;60508;42.622;25.416;2024-03-02T02:14:52;96347.81;;;7.78;97.33
45078;BME280;60508;42.622;25.416;2024-03-02T02:17:23;96354.75;;;7.91;97.69
45078;BME280;60508;42.622;25.416;2024-03-02T02:19:50;96356.06;;;7.89;97.09
45078;BME280;60508;42.622;25.416;2024-03-02T02:22:16;96352.22;;;7.96;96.25
45078;BME280;60508;42.622;25.416;2024-03-02T02:24:42;96352.47;;;7.83;96.64
45078;BME280;60508;42.622;25.416;2024-03-02T02:27:29;96355.13;;;7.95;96.43
45078;BME280;60508;42.622;25.416;2024-03-02T02:29:56;96355.59;;;7.80;95.94
45078;BME280;60508;42.622;25.416;2024-03-02T02:32:43;96359.81;;;7.76;95.44
45078;BME280;60508;42.622;25.416;2024-03-02T02:35:09;96355.50;;;7.86;94.74
45078;BME280;60508;42.622;25.416;2024-03-02T02:37:36;96368.97;;;7.92;94.43
45078;BME280;60508;42.622;25.416;2024-03-02T02:40:03;96363.53;;;7.86;93.58
45078;BME280;60508;42.622;25.416;2024-03-02T02:42:31;96357.72;;;7.78;94.74
45078;BME280;60508;42.622;25.416;2024-03-02T02:44:58;96366.78;;;7.89;95.02
45078;BME280;60508;42.622;25.416;2024-03-02T02:47:25;96366.59;;;8.07;94.72
45078;BME280;60508;42.622;25.416;2024-03-02T02:49:52;96364.75;;;7.96;94.69
45078;BME280;60508;42.622;25.416;2024-03-02T02:52:40;96361.94;;;8.02;94.20
45078;BME280;60508;42.622;25.416;2024-03-02T02:55:08;96365.06;;;8.11;94.12
45078;BME280;60508;42.622;25.416;2024-03-02T02:57:35;96352.09;;;7.91;94.36
45078;BME280;60508;42.622;25.416;2024-03-02T03:00:23;96357.09;;;7.88;95.43
45078;BME280;60508;42.622;25.416;2024-03-02T03:02:50;96366.56;;;7.66;95.85
45078;BME280;60508;42.622;25.416;2024-03-02T03:05:17;96371.88;;;7.78;96.26
45078;BME280;60508;42.622;25.416;2024-03-02T03:07:43;96368.06;;;7.74;96.44
45078;BME280;60508;42.622;25.416;2024-03-02T03:10:10;96359.34;;;7.67;96.76
45078;BME280;60508;42.622;25.416;2024-03-02T03:12:57;96359.81;;;7.76;96.40
45078;BME280;60508;42.622;25.416;2024-03-02T03:15:25;96361.19;;;7.78;96.11
45078;BME280;60508;42.622;25.416;2024-03-02T03:17:51;96362.13;;;7.84;96.17
45078;BME280;60508;42.622;25.416;2024-03-02T03:20:18;96360.38;;;7.78;96.58
45078;BME280;60508;42.622;25.416;2024-03-02T03:22:44;96365.59;;;7.84;96.39
45078;BME280;60508;42.622;25.416;2024-03-02T03:25:31;96369.22;;;7.90;95.35
45078;BME280;60508;42.622;25.416;2024-03-02T03:27:57;96366.66;;;7.72;95.70
45078;BME280;60508;42.622;25.416;2024-03-02T03:30:43;96372.38;;;7.75;95.82
45078;BME280;60508;42.622;25.416;2024-03-02T03:33:10;96361.78;;;7.80;95.60
45078;BME280;60508;42.622;25.416;2024-03-02T03:35:36;96369.13;;;7.73;95.77
45078;BME280;60508;42.622;25.416;2024-03-02T03:38:23;96362.38;;;7.59;96.28
45078;BME280;60508;42.622;25.416;2024-03-02T03:40:49;96363.66;;;7.68;96.54
45078;BME280;60508;42.622;25.416;2024-03-02T03:43:16;96360.38;;;7.90;96.05
45078;BME280;60508;42.622;25.416;2024-03-02T03:46:02;96366.81;;;8.05;93.96
45078;BME280;60508;42.622;25.416;2024-03-02T03:48:31;96360.91;;;8.03;93.94
45078;BME280;60508;42.622;25.416;2024-03-02T03:51:17;96351.63;;;7.94;93.65
45078;BME280;60508;42.622;25.416;2024-03-02T03:53:43;96355.69;;;7.97;93.95
45078;BME280;60508;42.622;25.416;2024-03-02T03:56:10;96352.59;;;7.88;94.48
45078;BME280;60508;42.622;25.416;2024-03-02T03:58:56;96351.00;;;7.75;95.18
45078;BME280;60508;42.622;25.416;2024-03-02T04:01:22;96345.91;;;8.02;94.45
45078;BME280;60508;42.622;25.416;2024-03-02T04:03:49;96346.25;;;8.06;93.59
45078;BME280;60508;42.622;25.416;2024-03-02T04:06:35;96342.22;;;7.92;93.57
45078;BME280;60508;42.622;25.416;2024-03-02T04:09:05;96348.50;;;7.85;94.82
45078;BME280;60508;42.622;25.416;2024-03-02T04:11:32;96352.50;;;7.71;95.47
45078;BME280;60508;42.622;25.416;2024-03-02T04:14:18;96346.69;;;7.74;96.07
45078;BME280;60508;42.622;25.416;2024-03-02T04:16:44;96350.63;;;7.72;96.34
45078;BME280;60508;42.622;25.416;2024-03-02T04:19:31;96348.41;;;7.80;94.89
45078;BME280;60508;42.622;25.416;2024-03-02T04:21:57;96360.03;;;7.86;94.78
45078;BME280;60508;42.622;25.416;2024-03-02T04:24:24;96350.50;;;7.90;93.83
45078;BME280;60508;42.622;25.416;2024-03-02T04:26:50;96343.06;;;7.80;94.68
45078;BME280;60508;42.622;25.416;2024-03-02T04:29:16;96352.84;;;7.86;94.49
45078;BME280;60508;42.622;25.416;2024-03-02T04:31:43;96355.50;;;7.75;95.02
45078;BME280;60508;42.622;25.416;2024-03-02T04:34:09;96354.13;;;7.72;95.79
45078;BME280;60508;42.622;25.416;2024-03-02T04:36:36;96358.53;;;7.78;96.08
45078;BME280;60508;42.622;25.416;2024-03-02T04:39:03;96363.75;;;7.73;96.92
45078;BME280;60508;42.622;25.416;2024-03-02T04:41:49;96374.00;;;7.88;96.12
45078;BME280;60508;42.622;25.416;2024-03-02T04:44:16;96362.03;;;7.67;96.62
45078;BME280;60508;42.622;25.416;2024-03-02T04:46:42;96365.41;;;7.74;96.68
45078;BME280;60508;42.622;25.416;2024-03-02T04:49:09;96364.13;;;7.65;97.20
45078;BME280;60508;42.622;25.416;2024-03-02T04:51:55;96358.44;;;7.61;97.94
45078;BME280;60508;42.622;25.416;2024-03-02T04:54:22;96361.09;;;7.73;96.52
45078;BME280;60508;42.622;25.416;2024-03-02T04:56:49;96366.09;;;7.70;96.75
45078;BME280;60508;42.622;25.416;2024-03-02T04:59:16;96359.34;;;7.79;96.72
45078;BME280;60508;42.622;25.416;2024-03-02T05:01:43;96362.53;;;7.64;97.34
45078;BME280;60508;42.622;25.416;2024-03-02T05:04:10;96361.00;;;7.68;97.83
45078;BME280;60508;42.622;25.416;2024-03-02T05:06:57;96371.41;;;7.81;97.80
45078;BME280;60508;42.622;25.416;2024-03-02T05:09:24;96360.25;;;7.84;98.03
45078;BME280;60508;42.622;25.416;2024-03-02T05:11:50;96358.31;;;7.68;98.13
45078;BME280;60508;42.622;25.416;2024-03-02T05:14:36;96359.84;;;7.64;98.36
45078;BME280;60508;42.622;25.416;2024-03-02T05:17:03;96346.34;;;7.71;98.12
45078;BME280;60508;42.622;25.416;2024-03-02T05:19:49;96341.44;;;7.79;98.13
45078;BME280;60508;42.622;25.416;2024-03-02T05:22:16;96345.94;;;7.91;97.88
45078;BME280;60508;42.622;25.416;2024-03-02T05:25:03;96366.44;;;7.73;97.78
45078;BME280;60508;42.622;25.416;2024-03-02T05:27:30;96355.75;;;7.85;97.90
45078;BME280;60508;42.622;25.416;2024-03-02T05:29:59;96371.94;;;8.07;96.17
45078;BME280;60508;42.622;25.416;2024-03-02T05:32:47;96375.41;;;7.79;97.16
45078;BME280;60508;42.622;25.416;2024-03-02T05:35:14;96379.09;;;7.90;97.53
45078;BME280;60508;42.622;25.416;2024-03-02T05:37:40;96378.84;;;8.03;96.43
45078;BME280;60508;42.622;25.416;2024-03-02T05:40:07;96375.22;;;7.97;97.21
45078;BME280;60508;42.622;25.416;2024-03-02T05:42:34;96385.13;;;7.97;96.97
45078;BME280;60508;42.622;25.416;2024-03-02T05:45:00;96381.59;;;8.08;96.54
45078;BME280;60508;42.622;25.416;2024-03-02T05:47:26;96377.66;;;8.11;97.07
45078;BME280;60508;42.622;25.416;2024-03-02T05:50:14;96391.19;;;7.92;97.01
45078;BME280;60508;42.622;25.416;2024-03-02T05:52:40;96374.91;;;7.94;97.50
45078;BME280;60508;42.622;25.416;2024-03-02T05:55:26;96387.56;;;7.98;97.54
45078;BME280;60508;42.622;25.416;2024-03-02T05:57:53;96389.63;;;8.08;96.72
45078;BME280;60508;42.622;25.416;2024-03-02T06:00:58;96363.91;;;8.07;94.96
45078;BME280;60508;42.622;25.416;2024-03-02T06:03:24;96395.28;;;7.47;98.73
45078;BME280;60508;42.622;25.416;2024-03-02T06:05:51;96383.91;;;7.64;100.00
45078;BME280;60508;42.622;25.416;2024-03-02T06:08:17;96393.66;;;7.82;99.55
45078;BME280;60508;42.622;25.416;2024-03-02T06:10:44;96384.31;;;7.84;99.70
45078;BME280;60508;42.622;25.416;2024-03-02T06:13:10;96382.16;;;7.58;100.00
45078;BME280;60508;42.622;25.416;2024-03-02T06:15:37;96380.66;;;7.74;100.00
45078;BME280;60508;42.622;25.416;2024-03-02T06:18:03;96366.53;;;7.78;99.65
45078;BME280;60508;42.622;25.416;2024-03-02T06:20:30;96367.63;;;7.06;100.00
45078;BME280;60508;42.622;25.416;2024-03-02T06:22:57;96371.47;;;7.34;100.00
45078;BME280;60508;42.622;25.416;2024-03-02T06:25:23;96353.47;;;7.53;100.00
45078;BME280;60508;42.622;25.416;2024-03-02T06:27:50;96368.81;;;7.22;100.00
45078;BME280;60508;42.622;25.416;2024-03-02T06:30:36;96371.00;;;7.37;100.00
45078;BME280;60508;42.622;25.416;2024-03-02T06:33:03;96372.19;;;7.41;100.00
45078;BME280;60508;42.622;25.416;2024-03-02T06:35:29;96357.16;;;7.52;100.00
45078;BME280;60508;42.622;25.416;2024-03-02T06:37:56;96358.47;;;7.49;100.00
45078;BME280;60508;42.622;25.416;2024-03-02T06:40:22;96360.41;;;7.66;99.43
45078;BME280;60508;42.622;25.416;2024-03-02T06:42:49;96356.00;;;7.60;99.34
45078;BME280;60508;42.622;25.416;2024-03-02T06:45:15;96375.41;;;7.55;100.00
45078;BME280;60508;42.622;25.416;2024-03-02T06:48:01;96383.44;;;7.43;100.00
45078;BME280;60508;42.622;25.416;2024-03-02T06:50:33;96377.59;;;7.70;100.00
45078;BME280;60508;42.622;25.416;2024-03-02T06:53:19;96388.19;;;7.77;98.69
45078;BME280;60508;42.622;25.416;2024-03-02T06:55:46;96391.34;;;7.62;99.05
45078;BME280;60508;42.622;25.416;2024-03-02T06:58:13;96384.56;;;7.83;98.96
45078;BME280;60508;42.622;25.416;2024-03-02T07:00:44;96397.94;;;7.83;98.49
45078;BME280;60508;42.622;25.416;2024-03-02T07:03:10;96400.75;;;7.64;98.92
45078;BME280;60508;42.622;25.416;2024-03-02T07:05:56;96409.22;;;7.85;99.26
45078;BME280;60508;42.622;25.416;2024-03-02T07:08:23;96398.03;;;8.00;98.57
45078;BME280;60508;42.622;25.416;2024-03-02T07:10:49;96389.06;;;8.06;98.04
45078;BME280;60508;42.622;25.416;2024-03-02T07:13:36;96383.91;;;8.16;96.84
45078;BME280;60508;42.622;25.416;2024-03-02T07:16:03;96384.53;;;8.35;95.77
45078;BME280;60508;42.622;25.416;2024-03-02T07:18:32;96380.63;;;7.85;97.89
45078;BME280;60508;42.622;25.416;2024-03-02T07:21:27;96368.41;;;7.90;98.45
45078;BME280;60508;42.622;25.416;2024-03-02T07:23:54;96379.88;;;8.02;98.24
45078;BME280;60508;42.622;25.416;2024-03-02T07:26:20;96364.47;;;8.21;96.31
45078;BME280;60508;42.622;25.416;2024-03-02T07:28:47;96332.88;;;7.54;98.32
45078;BME280;60508;42.622;25.416;2024-03-02T07:31:16;96323.28;;;7.17;100.00
45078;BME280;60508;42.622;25.416;2024-03-02T07:33:46;96338.72;;;7.39;100.00
45078;BME280;60508;42.622;25.416;2024-03-02T07:36:32;96351.63;;;7.30;100.00
45078;BME280;60508;42.622;25.416;2024-03-02T07:38:59;96368.44;;;7.42;100.00
45078;BME280;60508;42.622;25.416;2024-03-02T07:41:46;96368.44;;;7.66;100.00
45078;BME280;60508;42.622;25.416;2024-03-02T07:44:12;96373.97;;;8.00;100.00
45078;BME280;60508;42.622;25.416;2024-03-02T07:47:02;96366.78;;;7.89;97.55
45078;BME280;60508;42.622;25.416;2024-03-02T07:49:29;96373.38;;;7.86;98.12
45078;BME280;60508;42.622;25.416;2024-03-02T07:51:56;96362.16;;;7.60;98.38
45078;BME280;60508;42.622;25.416;2024-03-02T07:54:23;96375.28;;;7.62;98.70
45078;BME280;60508;42.622;25.416;2024-03-02T07:56:49;96386.81;;;7.50;98.47
45078;BME280;60508;42.622;25.416;2024-03-02T07:59:16;96382.88;;;7.53;99.38
45078;BME280;60508;42.622;25.416;2024-03-02T08:01:42;96380.78;;;7.31;100.00
45078;BME280;60508;42.622;25.416;2024-03-02T08:04:29;96379.38;;;7.64;100.00
45078;BME280;60508;42.622;25.416;2024-03-02T08:06:55;96373.63;;;7.84;98.31
45078;BME280;60508;42.622;25.416;2024-03-02T08:09:22;96359.97;;;8.10;97.41
45078;BME280;60508;42.622;25.416;2024-03-02T08:11:48;96360.72;;;7.81;96.83
45078;BME280;60508;42.622;25.416;2024-03-02T08:14:15;96359.25;;;7.62;99.13
45078;BME280;60508;42.622;25.416;2024-03-02T08:17:01;96374.69;;;7.72;98.27
45078;BME280;60508;42.622;25.416;2024-03-02T08:19:28;96386.16;;;7.96;97.34
45078;BME280;60508;42.622;25.416;2024-03-02T08:21:54;96389.22;;;7.88;96.37
45078;BME280;60508;42.622;25.416;2024-03-02T08:24:41;96379.88;;;8.02;95.84
45078;BME280;60508;42.622;25.416;2024-03-02T08:27:07;96396.69;;;8.26;95.15
45078;BME280;60508;42.622;25.416;2024-03-02T08:29:55;96388.25;;;8.34;93.99
45078;BME280;60508;42.622;25.416;2024-03-02T08:32:21;96376.84;;;8.39;92.44
45078;BME280;60508;42.622;25.416;2024-03-02T08:34:48;96361.28;;;7.95;94.65
45078;BME280;60508;42.622;25.416;2024-03-02T08:37:35;96383.91;;;8.16;95.45
45078;BME280;60508;42.622;25.416;2024-03-02T08:40:03;96386.16;;;8.08;93.94
45078;BME280;60508;42.622;25.416;2024-03-02T08:42:50;96375.13;;;8.45;94.81
45078;BME280;60508;42.622;25.416;2024-03-02T08:45:17;96380.34;;;8.68;93.48
45078;BME280;60508;42.622;25.416;2024-03-02T08:47:43;96378.00;;;8.72;91.65
45078;BME280;60508;42.622;25.416;2024-03-02T08:50:09;96392.47;;;8.88;90.87
45078;BME280;60508;42.622;25.416;2024-03-02T08:52:56;96394.34;;;8.87;90.54
45078;BME280;60508;42.622;25.416;2024-03-02T08:55:22;96380.63;;;9.18;90.29
45078;BME280;60508;42.622;25.416;2024-03-02T08:57:48;96382.75;;;8.99;89.40
45078;BME280;60508;42.622;25.416;2024-03-02T09:00:16;96368.78;;;9.30;88.66
45078;BME280;60508;42.622;25.416;2024-03-02T09:02:44;96368.09;;;8.89;89.62
45078;BME280;60508;42.622;25.416;2024-03-02T09:05:31;96362.03;;;8.77;92.08
45078;BME280;60508;42.622;25.416;2024-03-02T09:07:57;96352.13;;;8.77;92.02
45078;BME280;60508;42.622;25.416;2024-03-02T09:10:23;96357.16;;;8.91;90.69
45078;BME280;60508;42.622;25.416;2024-03-02T09:12:49;96379.91;;;9.05;89.99
45078;BME280;60508;42.622;25.416;2024-03-02T09:15:16;96393.31;;;9.22;90.13
45078;BME280;60508;42.622;25.416;2024-03-02T09:17:42;96388.06;;;8.82;90.99
45078;BME280;60508;42.622;25.416;2024-03-02T09:20:29;96364.88;;;9.21;89.52
45078;BME280;60508;42.622;25.416;2024-03-02T09:22:55;96368.28;;;9.34;88.98
45078;BME280;60508;42.622;25.416;2024-03-02T09:25:41;96362.34;;;9.31;88.08
45078;BME280;60508;42.622;25.416;2024-03-02T09:28:08;96350.44;;;8.88;90.77
45078;BME280;60508;42.622;25.416;2024-03-02T09:30:35;96351.72;;;8.86;92.77
45078;BME280;60508;42.622;25.416;2024-03-02T09:33:05;96361.94;;;9.06;92.55
45078;BME280;60508;42.622;25.416;2024-03-02T09:35:55;96375.50;;;8.99;91.94
45078;BME280;60508;42.622;25.416;2024-03-02T09:38:21;96352.44;;;9.32;91.12
45078;BME280;60508;42.622;25.416;2024-03-02T09:41:08;96364.88;;;9.38;89.50
45078;BME280;60508;42.622;25.416;2024-03-02T09:43:35;96388.72;;;9.40;88.04
45078;BME280;60508;42.622;25.416;2024-03-02T09:46:21;96346.34;;;9.37;88.24
45078;BME280;60508;42.622;25.416;2024-03-02T09:48:47;96343.06;;;9.35;88.48
45078;BME280;60508;42.622;25.416;2024-03-02T09:51:34;96349.16;;;9.47;87.22
45078;BME280;60508;42.622;25.416;2024-03-02T09:54:01;96329.59;;;9.46;86.83
45078;BME280;60508;42.622;25.416;2024-03-02T09:56:28;96329.78;;;9.62;87.42
45078;BME280;60508;42.622;25.416;2024-03-02T09:58:55;96332.47;;;10.06;85.23
45078;BME280;60508;42.622;25.416;2024-03-02T10:01:58;96327.31;;;10.27;84.09
45078;BME280;60508;42.622;25.416;2024-03-02T10:04:29;96339.56;;;10.39;82.00
45078;BME280;60508;42.622;25.416;2024-03-02T10:07:18;96355.47;;;10.46;82.00
45078;BME280;60508;42.622;25.416;2024-03-02T10:09:46;96359.50;;;10.71;81.53
45078;BME280;60508;42.622;25.416;2024-03-02T10:12:15;96360.09;;;10.78;80.66
45078;BME280;60508;42.622;25.416;2024-03-02T10:14:42;96357.31;;;10.68;79.37
45078;BME280;60508;42.622;25.416;2024-03-02T10:17:10;96341.53;;;10.49;79.41
45078;BME280;60508;42.622;25.416;2024-03-02T10:19:38;96337.63;;;10.62;80.19
45078;BME280;60508;42.622;25.416;2024-03-02T10:22:09;96344.34;;;10.87;79.06
45078;BME280;60508;42.622;25.416;2024-03-02T10:24:56;96342.66;;;10.81;78.38
45078;BME280;60508;42.622;25.416;2024-03-02T10:27:23;96336.84;;;10.94;78.40
45078;BME280;60508;42.622;25.416;2024-03-02T10:30:12;96341.75;;;10.70;79.25
45078;BME280;60508;42.622;25.416;2024-03-02T10:32:39;96333.69;;;10.43;79.58
45078;BME280;60508;42.622;25.416;2024-03-02T10:35:06;96339.22;;;10.58;80.09
45078;BME280;60508;42.622;25.416;2024-03-02T10:37:32;96344.47;;;10.75;79.55
45078;BME280;60508;42.622;25.416;2024-03-02T10:40:22;96348.31;;;10.84;79.16
45078;BME280;60508;42.622;25.416;2024-03-02T10:42:50;96346.63;;;10.46;80.14
45078;BME280;60508;42.622;25.416;2024-03-02T10:45:20;96346.41;;;10.30;81.77
45078;BME280;60508;42.622;25.416;2024-03-02T10:47:49;96342.47;;;10.60;81.64
45078;BME280;60508;42.622;25.416;2024-03-02T10:50:16;96341.53;;;10.76;81.75
45078;BME280;60508;42.622;25.416;2024-03-02T10:52:42;96338.56;;;11.05;80.76
45078;BME280;60508;42.622;25.416;2024-03-02T10:55:09;96349.84;;;10.48;81.32
45078;BME280;60508;42.622;25.416;2024-03-02T10:57:42;96325.34;;;10.66;81.87
45078;BME280;60508;42.622;25.416;2024-03-02T11:00:12;96320.19;;;10.92;81.38
45078;BME280;60508;42.622;25.416;2024-03-02T11:02:50;96319.06;;;10.88;80.07
45078;BME280;60508;42.622;25.416;2024-03-02T11:05:41;96315.63;;;10.98;78.50
45078;BME280;60508;42.622;25.416;2024-03-02T11:08:13;96305.28;;;11.17;78.31
45078;BME280;60508;42.622;25.416;2024-03-02T11:11:07;96303.91;;;10.76;79.23
45078;BME280;60508;42.622;25.416;2024-03-02T11:13:38;96318.31;;;10.65;78.19
45078;BME280;60508;42.622;25.416;2024-03-02T11:16:36;96311.88;;;10.61;78.88
45078;BME280;60508;42.622;25.416;2024-03-02T11:19:05;96312.59;;;10.84;78.19
45078;BME280;60508;42.622;25.416;2024-03-02T11:21:33;96312.44;;;11.01;77.02
45078;BME280;60508;42.622;25.416;2024-03-02T11:24:00;96298.34;;;10.88;78.37
45078;BME280;60508;42.622;25.416;2024-03-02T11:26:28;96313.38;;;11.17;78.14
45078;BME280;60508;42.622;25.416;2024-03-02T11:28:54;96306.22;;;11.32;77.69
45078;BME280;60508;42.622;25.416;2024-03-02T11:31:57;96308.72;;;11.49;75.35
45078;BME280;60508;42.622;25.416;2024-03-02T11:34:35;96301.22;;;11.57;74.85
45078;BME280;60508;42.622;25.416;2024-03-02T11:37:22;96294.00;;;11.67;74.17
45078;BME280;60508;42.622;25.416;2024-03-02T11:39:51;96288.41;;;11.79;74.39
45078;BME280;60508;42.622;25.416;2024-03-02T11:42:17;96287.59;;;11.79;73.54
45078;BME280;60508;42.622;25.416;2024-03-02T11:45:04;96291.94;;;11.85;73.77
45078;BME280;60508;42.622;25.416;2024-03-02T11:47:34;96300.63;;;11.97;73.58
45078;BME280;60508;42.622;25.416;2024-03-02T11:50:01;96292.59;;;12.13;72.43
45078;BME280;60508;42.622;25.416;2024-03-02T11:52:28;96290.13;;;11.96;72.27
45078;BME280;60508;42.622;25.416;2024-03-02T11:55:15;96288.56;;;12.10;72.46
45078;BME280;60508;42.622;25.416;2024-03-02T11:57:42;96283.69;;;12.02;71.53
45078;BME280;60508;42.622;25.416;2024-03-02T12:00:29;96277.31;;;12.34;70.77
45078;BME280;60508;42.622;25.416;2024-03-02T12:03:04;96281.91;;;12.64;69.35
45078;BME280;60508;42.622;25.416;2024-03-02T12:05:31;96263.84;;;12.44;69.85
45078;BME280;60508;42.622;25.416;2024-03-02T12:08:02;96259.25;;;12.96;69.48
45078;BME280;60508;42.622;25.416;2024-03-02T12:10:30;96266.47;;;13.31;67.49
45078;BME280;60508;42.622;25.416;2024-03-02T12:13:04;96265.69;;;13.26;67.17
45078;BME280;60508;42.622;25.416;2024-03-02T12:15:32;96258.41;;;13.21;67.10
45078;BME280;60508;42.622;25.416;2024-03-02T12:18:19;96257.84;;;13.29;66.37
45078;BME280;60508;42.622;25.416;2024-03-02T12:20:45;96259.78;;;13.34;66.94
45078;BME280;60508;42.622;25.416;2024-03-02T12:23:12;96256.78;;;13.20;66.18
45078;BME280;60508;42.622;25.416;2024-03-02T12:25:38;96262.94;;;13.51;65.23
45078;BME280;60508;42.622;25.416;2024-03-02T12:28:05;96251.19;;;12.81;66.44
45078;BME280;60508;42.622;25.416;2024-03-02T12:30:52;96253.06;;;12.49;68.87
45078;BME280;60508;42.622;25.416;2024-03-02T12:33:19;96253.59;;;12.82;67.62
45078;BME280;60508;42.622;25.416;2024-03-02T12:35:45;96255.19;;;13.09;67.05
45078;BME280;60508;42.622;25.416;2024-03-02T12:38:32;96254.69;;;13.02;67.82
45078;BME280;60508;42.622;25.416;2024-03-02T12:40:58;96252.81;;;12.92;67.20
45078;BME280;60508;42.622;25.416;2024-03-02T12:43:45;96249.78;;;13.35;65.57
45078;BME280;60508;42.622;25.416;2024-03-02T12:46:11;96249.81;;;13.04;64.78
45078;BME280;60508;42.622;25.416;2024-03-02T12:48:58;96263.81;;;13.16;66.28
45078;BME280;60508;42.622;25.416;2024-03-02T12:51:27;96258.38;;;13.47;65.78
45078;BME280;60508;42.622;25.416;2024-03-02T12:54:14;96259.72;;;13.44;66.11
45078;BME280;60508;42.622;25.416;2024-03-02T12:56:41;96264.56;;;13.32;67.09
45078;BME280;60508;42.622;25.416;2024-03-02T12:59:31;96258.97;;;13.03;67.98
45078;BME280;60508;42.622;25.416;2024-03-02T13:01:58;96254.69;;;12.60;69.82
45078;BME280;60508;42.622;25.416;2024-03-02T13:04:25;96256.59;;;12.55;69.13
45078;BME280;60508;42.622;25.416;2024-03-02T13:06:52;96261.97;;;12.81;69.82
45078;BME280;60508;42.622;25.416;2024-03-02T13:09:19;96266.00;;;12.78;69.75
45078;BME280;60508;42.622;25.416;2024-03-02T13:11:46;96259.28;;;12.65;69.13
45078;BME280;60508;42.622;25.416;2024-03-02T13:14:33;96263.28;;;12.93;69.20
45078;BME280;60508;42.622;25.416;2024-03-02T13:17:01;96265.72;;;13.05;68.78
45078;BME280;60508;42.622;25.416;2024-03-02T13:19:30;96271.94;;;12.95;67.88
45078;BME280;60508;42.622;25.416;2024-03-02T13:21:57;96263.84;;;12.85;69.08
45078;BME280;60508;42.622;25.416;2024-03-02T13:24:25;96259.25;;;12.96;68.79